createdAt,value
2022-09-07T00:00:50.089Z,1.20
2022-09-07T00:03:18.496Z,0.90
2022-09-07T00:05:48.038Z,0.90
2022-09-07T00:08:18.746Z,0.68
2022-09-07T00:10:53.695Z,1.23
2022-09-07T00:13:22.025Z,1.25
2022-09-07T00:15:50.252Z,1.15
2022-09-07T00:18:18.698Z,1.10
2022-09-07T00:20:47.271Z,1.00
2022-09-07T00:23:15.452Z,1.20
2022-09-07T00:25:44.915Z,1.08
2022-09-07T00:28:12.971Z,0.73
2022-09-07T00:30:43.395Z,1.02
2022-09-07T00:33:11.467Z,0.90
2022-09-07T00:35:42.717Z,0.95
2022-09-07T00:38:11.087Z,1.00
2022-09-07T00:40:39.212Z,0.90
2022-09-07T00:43:09.346Z,0.90
2022-09-07T00:45:37.497Z,1.10
2022-09-07T00:48:09.792Z,0.80
2022-09-07T00:50:41.893Z,0.90
2022-09-07T00:53:24.005Z,1.08
2022-09-07T00:55:54.814Z,0.80
2022-09-07T00:58:24.997Z,0.60
2022-09-07T01:00:53.398Z,0.77
2022-09-07T01:03:28.629Z,0.90
2022-09-07T01:06:01.709Z,0.80
2022-09-07T01:08:30.435Z,0.82
2022-09-07T01:10:59.817Z,0.82
2022-09-07T01:13:29.369Z,0.73
2022-09-07T01:16:05.042Z,0.77
2022-09-07T01:18:40.561Z,1.00
2022-09-07T01:21:22.085Z,0.95
2022-09-07T01:24:25.300Z,0.80
2022-09-07T01:27:12.207Z,0.88
2022-09-07T01:29:53.395Z,0.77
2022-09-07T01:32:29.831Z,1.08
2022-09-07T01:34:58.404Z,0.60
2022-09-07T01:37:34.098Z,0.60
2022-09-07T01:40:08.733Z,0.80
2022-09-07T01:42:45.812Z,0.73
2022-09-07T01:45:18.376Z,0.80
2022-09-07T01:47:49.410Z,0.80
2022-09-07T01:50:22.439Z,1.00
2022-09-07T01:52:55.051Z,0.98
2022-09-07T01:55:28.020Z,1.10
2022-09-07T01:58:00.861Z,0.80
2022-09-07T02:00:32.290Z,0.80
2022-09-07T02:03:06.151Z,0.90
2022-09-07T02:05:40.955Z,1.00
2022-09-07T02:10:45.224Z,0.63
2022-09-07T02:13:19.039Z,0.70
2022-09-07T02:15:53.234Z,0.70
2022-09-07T02:18:23.167Z,0.73
2022-09-07T02:20:54.381Z,0.90
2022-09-07T02:23:26.559Z,0.70
2022-09-07T02:25:58.190Z,0.82
2022-09-07T02:28:30.477Z,0.60
2022-09-07T02:31:00.220Z,0.60
2022-09-07T02:33:28.865Z,0.80
2022-09-07T02:35:56.942Z,0.70
2022-09-07T02:38:25.850Z,0.57
2022-09-07T02:40:55.048Z,0.63
2022-09-07T02:43:24.970Z,0.82
2022-09-07T02:46:10.348Z,0.60
2022-09-07T02:48:48.054Z,0.80
2022-09-07T02:51:22.941Z,0.50
2022-09-07T02:56:38.939Z,0.60
2022-09-07T02:59:17.781Z,0.50
2022-09-07T03:01:57.037Z,0.75
2022-09-07T03:04:30.821Z,0.82
2022-09-07T03:07:05.655Z,0.55
2022-09-07T03:12:07.424Z,0.60
2022-09-07T03:14:36.226Z,0.68
2022-09-07T03:17:05.766Z,1.05
2022-09-07T03:19:33.770Z,0.65
2022-09-07T03:22:01.786Z,0.63
2022-09-07T03:24:29.782Z,0.60
2022-09-07T03:26:57.860Z,0.55
2022-09-07T03:29:25.926Z,0.60
2022-09-07T03:31:53.949Z,0.60
2022-09-07T03:34:23.323Z,0.50
2022-09-07T03:36:51.331Z,0.68
2022-09-07T03:39:22.570Z,0.50
2022-09-07T03:41:50.814Z,0.60
2022-09-07T03:44:18.847Z,0.70
2022-09-07T03:46:46.915Z,0.77
2022-09-07T03:49:16.515Z,0.70
2022-09-07T03:51:46.022Z,0.70
2022-09-07T03:54:14.090Z,0.70
2022-09-07T03:56:42.118Z,0.70
2022-09-07T03:59:10.143Z,0.63
2022-09-07T04:01:38.322Z,0.68
2022-09-07T04:04:06.629Z,0.60
2022-09-07T04:06:34.750Z,0.50
2022-09-07T04:09:05.503Z,0.75
2022-09-07T04:11:33.927Z,0.60
2022-09-07T04:14:02.009Z,0.70
2022-09-07T04:16:30.289Z,0.73
2022-09-07T04:18:59.098Z,0.52
2022-09-07T04:21:29.296Z,0.80
2022-09-07T04:23:57.880Z,0.80
2022-09-07T04:26:29.027Z,0.45
2022-09-07T04:28:57.477Z,0.60
2022-09-07T04:31:26.424Z,0.70
2022-09-07T04:33:55.957Z,0.60
2022-09-07T04:36:25.782Z,0.70
2022-09-07T04:38:57.719Z,0.40
2022-09-07T04:41:27.890Z,0.60
2022-09-07T04:43:57.374Z,0.50
2022-09-07T04:46:27.159Z,0.63
2022-09-07T04:48:57.012Z,0.50
2022-09-07T04:51:27.777Z,0.47
2022-09-07T04:53:57.366Z,0.50
2022-09-07T04:56:27.371Z,0.80
2022-09-07T04:58:55.547Z,0.50
2022-09-07T05:01:25.432Z,0.52
2022-09-07T05:03:53.938Z,0.50
2022-09-07T05:06:23.473Z,0.60
2022-09-07T05:08:53.278Z,0.50
2022-09-07T05:11:27.717Z,0.60
2022-09-07T05:13:58.579Z,0.57
2022-09-07T05:16:27.814Z,0.70
2022-09-07T05:18:58.436Z,0.60
2022-09-07T05:21:28.522Z,0.68
2022-09-07T05:23:58.276Z,0.47
2022-09-07T05:26:28.381Z,0.75
2022-09-07T05:31:46.327Z,0.68
2022-09-07T05:34:31.045Z,0.55
2022-09-07T05:39:28.142Z,0.32
2022-09-07T05:41:56.423Z,0.60
2022-09-07T05:47:14.556Z,0.52
2022-09-07T05:49:42.661Z,0.70
2022-09-07T05:52:10.768Z,0.73
2022-09-07T05:54:38.806Z,0.60
2022-09-07T05:57:07.267Z,0.70
2022-09-07T05:59:35.840Z,0.52
2022-09-07T06:02:04.587Z,0.68
2022-09-07T06:04:34.280Z,0.50
2022-09-07T06:07:21.036Z,0.30
2022-09-07T06:12:38.413Z,0.60
2022-09-07T06:15:07.417Z,0.70
2022-09-07T06:17:35.602Z,0.60
2022-09-07T06:20:05.703Z,0.52
2022-09-07T06:22:35.750Z,0.52
2022-09-07T06:25:04.000Z,0.40
2022-09-07T06:27:32.060Z,0.47
2022-09-07T06:30:00.180Z,0.60
2022-09-07T06:32:44.110Z,0.40
2022-09-07T06:35:14.847Z,0.50
2022-09-07T06:37:43.099Z,0.50
2022-09-07T06:40:12.161Z,0.60
2022-09-07T06:42:40.687Z,0.60
2022-09-07T06:45:10.968Z,0.68
2022-09-07T06:47:39.028Z,0.60
2022-09-07T06:50:07.853Z,0.50
2022-09-07T06:55:27.584Z,0.50
2022-09-07T06:57:55.763Z,0.60
2022-09-07T07:00:23.882Z,0.60
2022-09-07T07:02:52.027Z,0.38
2022-09-07T07:05:20.116Z,0.50
2022-09-07T07:07:49.523Z,0.40
2022-09-07T07:10:22.120Z,0.55
2022-09-07T07:15:21.334Z,0.50
2022-09-07T07:17:58.127Z,0.40
2022-09-07T07:20:29.237Z,0.60
2022-09-07T07:22:58.639Z,0.40
2022-09-07T07:25:26.707Z,0.43
2022-09-07T07:27:54.897Z,0.43
2022-09-07T07:30:23.399Z,0.55
2022-09-07T07:32:51.569Z,0.50
2022-09-07T07:35:19.608Z,0.50
2022-09-07T07:37:48.094Z,0.40
2022-09-07T07:40:19.940Z,0.40
2022-09-07T07:42:51.508Z,0.55
2022-09-07T07:48:07.645Z,0.30
2022-09-07T07:50:35.640Z,0.60
2022-09-07T07:55:54.718Z,0.50
2022-09-07T07:58:22.951Z,0.57
2022-09-07T08:00:55.476Z,0.40
2022-09-07T08:03:25.074Z,3.78
2022-09-07T08:05:53.791Z,3.83
2022-09-07T08:08:22.680Z,4.47
2022-09-07T08:10:51.045Z,4.63
2022-09-07T08:13:21.740Z,4.15
2022-09-07T08:15:49.901Z,4.43
2022-09-07T08:18:18.861Z,4.50
2022-09-07T08:20:46.711Z,4.63
2022-09-07T08:23:15.243Z,4.43
2022-09-07T08:25:51.425Z,4.57
2022-09-07T08:28:21.215Z,4.18
2022-09-07T08:30:49.150Z,4.28
2022-09-07T08:33:17.152Z,4.78
2022-09-07T08:35:55.444Z,3.05
2022-09-07T08:38:23.385Z,2.13
2022-09-07T08:40:51.814Z,2.10
2022-09-07T08:43:31.293Z,2.00
2022-09-07T08:46:06.136Z,1.83
2022-09-07T08:48:35.979Z,2.45
2022-09-07T08:51:10.137Z,2.35
2022-09-07T08:53:45.158Z,2.60
2022-09-07T08:56:19.061Z,3.05
2022-09-07T08:58:51.153Z,2.58
2022-09-07T09:01:37.063Z,3.10
2022-09-07T09:04:16.707Z,3.38
2022-09-07T09:06:58.384Z,3.13
2022-09-07T09:09:38.671Z,3.13
2022-09-07T09:12:18.386Z,3.08
2022-09-07T09:14:59.845Z,2.67
2022-09-07T09:19:05.293Z,2.70
2022-09-07T09:21:34.851Z,2.53
2022-09-07T09:24:13.837Z,2.50
2022-09-07T09:26:44.606Z,2.50
2022-09-07T09:29:15.939Z,2.28
2022-09-07T09:31:43.941Z,2.75
2022-09-07T09:34:17.603Z,2.58
2022-09-07T09:36:47.685Z,2.80
2022-09-07T09:39:27.103Z,2.63
2022-09-07T09:41:56.962Z,2.22
2022-09-07T09:44:28.181Z,2.53
2022-09-07T09:49:46.490Z,2.53
2022-09-07T09:52:42.205Z,2.95
2022-09-07T10:04:04.663Z,2.30
2022-09-07T10:06:35.267Z,2.45
2022-09-07T10:09:03.959Z,2.40
2022-09-07T10:12:07.145Z,2.10
2022-09-07T10:14:37.904Z,2.75
2022-09-07T10:17:14.398Z,2.45
2022-09-07T10:19:44.216Z,1.90
2022-09-07T10:22:26.015Z,7.38
2022-09-07T10:24:53.922Z,7.13
2022-09-07T10:27:38.779Z,8.20
2022-09-07T10:30:14.587Z,5.75
2022-09-07T10:32:53.529Z,7.38
2022-09-07T10:35:27.629Z,7.00
2022-09-07T10:38:09.774Z,7.53
2022-09-07T10:40:43.746Z,7.45
2022-09-07T10:43:21.414Z,7.60
2022-09-07T10:46:12.978Z,9.35
2022-09-07T10:48:47.474Z,8.40
2022-09-07T10:51:18.991Z,6.53
2022-09-07T10:56:57.095Z,6.50
2022-09-07T11:02:40.919Z,6.82
2022-09-07T11:05:18.087Z,6.00
2022-09-07T11:08:02.259Z,5.80
2022-09-07T11:10:43.019Z,6.55
2022-09-07T11:13:15.497Z,6.35
2022-09-07T11:15:47.877Z,6.93
2022-09-07T11:18:20.791Z,6.20
2022-09-07T11:20:55.191Z,6.97
2022-09-07T11:23:27.728Z,6.53
2022-09-07T11:26:03.310Z,5.88
2022-09-07T11:28:39.682Z,6.13
2022-09-07T11:31:19.559Z,5.20
2022-09-07T11:36:51.807Z,6.20
2022-09-07T11:39:26.510Z,5.65
2022-09-07T11:42:42.811Z,5.80
2022-09-07T11:44:56.730Z,5.22
2022-09-07T11:47:30.974Z,6.13
2022-09-07T11:49:59.600Z,5.28
2022-09-07T11:52:35.418Z,4.43
2022-09-07T11:55:07.582Z,4.47
2022-09-07T11:57:55.658Z,5.65
2022-09-07T12:00:28.789Z,5.00
2022-09-07T12:03:23.216Z,4.13
2022-09-07T12:06:27.992Z,3.20
2022-09-07T12:09:07.627Z,3.20
2022-09-07T12:12:02.860Z,2.85
2022-09-07T12:14:42.640Z,2.72
2022-09-07T12:17:31.700Z,2.30
2022-09-07T12:20:16.738Z,2.17
2022-09-07T12:23:05.155Z,2.42
2022-09-07T12:25:34.596Z,2.28
2022-09-07T12:28:03.131Z,2.05
2022-09-07T12:31:04.478Z,2.17
2022-09-07T12:33:35.485Z,2.28
2022-09-07T12:36:24.238Z,2.05
2022-09-07T12:39:20.565Z,1.50
2022-09-07T12:42:31.859Z,1.95
2022-09-07T12:44:40.185Z,1.80
2022-09-07T12:47:27.819Z,1.30
2022-09-07T12:50:10.485Z,1.40
2022-09-07T12:52:48.335Z,1.38
2022-09-07T12:58:40.904Z,1.25
2022-09-07T13:01:27.904Z,0.90
2022-09-07T13:04:28.959Z,1.10
2022-09-07T13:07:18.228Z,1.10
2022-09-07T13:09:57.265Z,1.25
2022-09-07T13:15:43.117Z,1.80
2022-09-07T13:18:13.934Z,1.10
2022-09-07T13:20:41.956Z,0.88
2022-09-07T13:23:32.092Z,0.90
2022-09-07T13:26:01.823Z,1.00
2022-09-07T13:28:38.307Z,0.80
2022-09-07T13:31:21.880Z,0.75
2022-09-07T13:33:50.609Z,0.90
2022-09-07T13:36:34.651Z,0.90
2022-09-07T13:39:09.171Z,0.82
2022-09-07T13:41:42.220Z,1.00
2022-09-07T13:44:25.608Z,0.60
2022-09-07T13:47:08.715Z,0.70
2022-09-07T13:49:51.396Z,1.05
2022-09-07T13:52:29.007Z,0.65
2022-09-07T13:55:10.546Z,1.10
2022-09-07T13:57:48.323Z,1.17
2022-09-07T14:00:17.346Z,0.90
2022-09-07T14:02:54.468Z,0.95
2022-09-07T14:05:24.499Z,0.95
2022-09-07T14:07:52.544Z,1.10
2022-09-07T14:10:23.759Z,1.20
2022-09-07T14:12:53.916Z,0.75
2022-09-07T14:15:29.664Z,0.90
2022-09-07T14:18:06.267Z,1.05
2022-09-07T14:20:39.360Z,0.80
2022-09-07T14:23:13.183Z,0.90
2022-09-07T14:28:32.699Z,0.82
2022-09-07T14:31:01.053Z,0.90
2022-09-07T14:33:30.273Z,1.33
2022-09-07T14:35:59.264Z,0.70
2022-09-07T14:41:21.018Z,1.00
2022-09-07T14:43:53.918Z,1.02
2022-09-07T14:46:24.860Z,1.15
2022-09-07T14:48:55.416Z,1.23
2022-09-07T14:51:35.278Z,0.85
2022-09-07T14:54:06.552Z,1.77
2022-09-07T14:56:38.176Z,1.73
2022-09-07T14:59:27.300Z,1.52
2022-09-07T15:02:23.981Z,2.03
2022-09-07T15:05:26.436Z,2.47
2022-09-07T15:07:56.724Z,2.20
2022-09-07T15:10:37.751Z,3.03
2022-09-07T15:13:22.068Z,2.70
2022-09-07T15:15:58.322Z,3.47
2022-09-07T15:18:54.506Z,3.35
2022-09-07T15:21:25.407Z,3.72
2022-09-07T15:23:54.418Z,4.05
2022-09-07T15:29:13.024Z,4.90
2022-09-07T15:31:43.586Z,5.22
2022-09-07T15:34:16.025Z,5.05
2022-09-07T15:36:48.737Z,5.65
2022-09-07T15:39:18.457Z,6.10
2022-09-07T15:41:46.947Z,4.80
2022-09-07T15:44:15.781Z,5.72
2022-09-07T15:47:42.363Z,5.03
2022-09-07T15:49:31.915Z,5.05
2022-09-07T15:52:08.432Z,5.68
2022-09-07T15:54:39.728Z,5.95
2022-09-07T15:59:55.769Z,5.32
2022-09-07T16:05:12.128Z,5.72
2022-09-07T16:10:32.738Z,5.75
2022-09-07T16:13:02.459Z,6.35
2022-09-07T16:15:31.153Z,5.60
2022-09-07T16:17:59.209Z,7.10
2022-09-07T16:20:32.085Z,5.95
2022-09-07T16:23:17.390Z,6.47
2022-09-07T16:25:57.063Z,5.30
2022-09-07T16:28:25.281Z,6.20
2022-09-07T16:30:53.224Z,5.20
2022-09-07T16:33:21.356Z,6.05
2022-09-07T16:35:59.595Z,5.32
2022-09-07T16:38:45.652Z,5.95
2022-09-07T16:41:15.227Z,5.45
2022-09-07T16:43:43.322Z,6.63
2022-09-07T16:46:14.154Z,5.75
2022-09-07T16:48:43.784Z,5.95
2022-09-07T16:51:14.250Z,5.32
2022-09-07T16:53:43.914Z,4.80
2022-09-07T16:56:13.746Z,4.88
2022-09-07T16:58:43.421Z,5.43
2022-09-07T17:01:13.606Z,5.00
2022-09-07T17:03:42.297Z,5.72
2022-09-07T17:06:12.091Z,5.63
2022-09-07T17:08:41.115Z,5.28
2022-09-07T17:11:11.695Z,5.95
2022-09-07T17:13:41.321Z,5.63
2022-09-07T17:16:11.863Z,5.97
2022-09-07T17:21:31.281Z,6.10
2022-09-07T17:24:01.453Z,5.05
2022-09-07T17:26:31.083Z,4.80
2022-09-07T17:29:00.926Z,5.13
2022-09-07T17:34:20.161Z,5.18
2022-09-07T17:36:48.239Z,5.10
2022-09-07T17:39:18.094Z,4.85
2022-09-07T17:41:49.317Z,4.07
2022-09-07T17:44:17.415Z,4.88
2022-09-07T17:46:45.514Z,5.30
2022-09-07T17:49:16.134Z,4.60
2022-09-07T17:51:45.037Z,4.65
2022-09-07T17:54:15.628Z,4.32
2022-09-07T17:56:44.010Z,4.55
2022-09-07T18:02:01.318Z,3.90
2022-09-07T18:04:29.549Z,4.60
2022-09-07T18:06:57.552Z,4.10
2022-09-07T18:09:25.478Z,4.15
2022-09-07T18:11:53.363Z,4.72
2022-09-07T18:14:22.607Z,4.10
2022-09-07T18:16:51.620Z,4.07
2022-09-07T18:19:20.500Z,4.05
2022-09-07T18:21:49.061Z,4.47
2022-09-07T18:24:19.426Z,4.68
2022-09-07T18:26:50.624Z,3.90
2022-09-07T18:29:28.801Z,4.45
2022-09-07T18:31:59.718Z,4.05
2022-09-07T18:34:30.712Z,4.35
2022-09-07T18:36:59.120Z,4.50
2022-09-07T18:39:27.225Z,4.53
2022-09-07T18:41:55.412Z,3.95
2022-09-07T18:47:22.188Z,3.63
2022-09-07T18:49:55.417Z,3.88
2022-09-07T18:55:11.736Z,3.72
2022-09-07T18:57:39.726Z,3.53
2022-09-07T19:00:09.860Z,3.70
2022-09-07T19:02:39.395Z,3.35
2022-09-07T19:07:55.680Z,4.13
2022-09-07T19:10:23.579Z,6.60
2022-09-07T19:12:51.494Z,8.63
2022-09-07T19:15:20.413Z,9.73
2022-09-07T19:17:49.677Z,11.13
2022-09-07T19:20:17.752Z,12.10
2022-09-07T19:22:45.621Z,15.20
2022-09-07T19:25:13.509Z,15.57
2022-09-07T19:27:41.410Z,17.88
2022-09-07T19:30:10.481Z,22.05
2022-09-07T19:32:38.580Z,22.30
2022-09-07T19:35:08.696Z,22.42
2022-09-07T19:37:36.667Z,25.52
2022-09-07T19:40:05.962Z,28.55
2022-09-07T19:42:33.877Z,28.42
2022-09-07T19:45:01.741Z,27.10
2022-09-07T19:47:29.611Z,31.17
2022-09-07T19:49:57.543Z,32.50
2022-09-07T19:52:26.844Z,32.13
2022-09-07T19:54:54.781Z,34.08
2022-09-07T19:57:22.672Z,34.92
2022-09-07T19:59:52.991Z,35.20
2022-09-07T20:02:20.891Z,37.22
2022-09-07T20:04:48.825Z,39.78
2022-09-07T20:07:16.682Z,38.95
2022-09-07T20:09:50.338Z,40.70
2022-09-07T20:12:19.579Z,41.78
2022-09-07T20:14:47.441Z,40.05
2022-09-07T20:17:15.334Z,41.35
2022-09-07T20:19:43.222Z,42.53
2022-09-07T20:22:11.098Z,43.28
2022-09-07T20:24:39.980Z,43.03
2022-09-07T20:27:09.718Z,43.80
2022-09-07T20:29:38.421Z,44.70
2022-09-07T20:32:06.555Z,47.33
2022-09-07T20:34:34.546Z,47.35
2022-09-07T20:37:02.464Z,48.45
2022-09-07T20:39:30.630Z,48.08
2022-09-07T20:41:59.913Z,47.67
2022-09-07T20:44:29.110Z,49.80
2022-09-07T20:46:57.098Z,46.88
2022-09-07T20:49:25.087Z,48.20
2022-09-07T20:51:52.991Z,49.63
2022-09-07T20:54:20.862Z,51.03
2022-09-07T20:56:48.950Z,52.38
2022-09-07T20:59:16.851Z,49.70
2022-09-07T21:01:46.516Z,50.50
2022-09-07T21:04:14.438Z,51.72
2022-09-07T21:06:42.317Z,50.92
2022-09-07T21:09:10.547Z,53.58
2022-09-07T21:11:39.763Z,51.50
2022-09-07T21:14:09.503Z,51.63
2022-09-07T21:16:38.214Z,55.40
2022-09-07T21:19:10.885Z,54.15
2022-09-07T21:21:40.271Z,54.28
2022-09-07T21:24:15.398Z,54.10
2022-09-07T21:26:43.285Z,53.95
2022-09-07T21:29:17.126Z,54.58
2022-09-07T21:31:45.148Z,54.20
2022-09-07T21:34:15.016Z,56.25
2022-09-07T21:36:42.907Z,54.38
2022-09-07T21:39:14.331Z,56.10
2022-09-07T21:41:43.043Z,54.95
2022-09-07T21:44:13.317Z,55.15
2022-09-07T21:46:42.305Z,55.72
2022-09-07T21:49:10.412Z,55.90
2022-09-07T21:51:39.957Z,57.33
2022-09-07T21:54:08.026Z,55.70
2022-09-07T21:56:36.015Z,55.40
2022-09-07T21:59:04.091Z,56.65
2022-09-07T22:01:32.301Z,56.08
2022-09-07T22:04:02.146Z,56.45
2022-09-07T22:06:32.165Z,58.85
2022-09-07T22:09:02.067Z,55.30
2022-09-07T22:11:30.850Z,54.55
2022-09-07T22:14:01.731Z,56.75
2022-09-07T22:16:29.714Z,56.97
2022-09-07T22:18:57.602Z,59.40
2022-09-07T22:21:27.485Z,59.03
2022-09-07T22:23:57.778Z,57.35
2022-09-07T22:26:29.093Z,54.03
2022-09-07T22:28:58.549Z,44.40
2022-09-07T22:31:28.863Z,52.03
2022-09-07T22:33:57.681Z,51.15
2022-09-07T22:36:27.872Z,55.33
2022-09-07T22:38:57.219Z,54.10
2022-09-07T22:41:28.643Z,53.50
2022-09-07T22:43:56.991Z,56.85
2022-09-07T22:46:26.860Z,61.35
2022-09-07T22:48:55.484Z,61.97
2022-09-07T22:51:23.962Z,61.25
2022-09-07T22:53:51.934Z,63.15
2022-09-07T22:56:22.043Z,63.90
2022-09-07T22:58:53.502Z,66.55
2022-09-07T23:01:22.126Z,68.25
2022-09-07T23:03:50.649Z,65.72
2022-09-07T23:06:23.290Z,67.70
2022-09-07T23:08:52.433Z,67.03
2022-09-07T23:11:20.706Z,68.15
2022-09-07T23:13:53.698Z,66.28
2022-09-07T23:16:22.176Z,64.70
2022-09-07T23:18:50.382Z,62.20
2022-09-07T23:21:18.713Z,58.63
2022-09-07T23:23:51.425Z,58.03
2022-09-07T23:26:19.554Z,57.15
2022-09-07T23:28:51.286Z,56.22
2022-09-07T23:31:20.765Z,54.80
2022-09-07T23:33:48.949Z,55.22
2022-09-07T23:36:17.535Z,52.83
2022-09-07T23:38:45.512Z,52.03
2022-09-07T23:41:14.510Z,50.92
2022-09-07T23:43:42.672Z,51.05
2022-09-07T23:46:14.278Z,48.83
2022-09-07T23:48:44.080Z,47.22
2022-09-07T23:51:12.173Z,47.15
2022-09-07T23:53:40.182Z,45.78
2022-09-07T23:56:08.624Z,47.40
2022-09-07T23:58:36.559Z,46.28
